sensor_id;sensor_type;location;lat;lon;timestamp;temperature;humidity
11700;DHT22;5906;51.660;6.674;2022-09-03T00:00:13;16.80;99.90
11700;DHT22;5906;51.660;6.674;2022-09-03T00:05:30;16.80;99.90
11700;DHT22;5906;51.660;6.674;2022-09-03T00:10:46;16.70;99.90
11700;DHT22;5906;51.660;6.674;2022-09-03T00:13:23;16.70;99.90
11700;DHT22;5906;51.660;6.674;2022-09-03T00:15:52;16.70;99.90
11700;DHT22;5906;51.660;6.674;2022-09-03T00:18:22;16.60;99.90
11700;DHT22;5906;51.660;6.674;2022-09-03T00:21:03;16.60;99.90
11700;DHT22;5906;51.660;6.674;2022-09-03T00:23:37;16.60;99.90
11700;DHT22;5906;51.660;6.674;2022-09-03T00:28:51;16.60;99.90
11700;DHT22;5906;51.660;6.674;2022-09-03T00:31:37;16.50;99.90
11700;DHT22;5906;51.660;6.674;2022-09-03T00:36:47;16.30;99.90
11700;DHT22;5906;51.660;6.674;2022-09-03T00:39:16;16.40;99.90
11700;DHT22;5906;51.660;6.674;2022-09-03T00:42:00;16.40;99.90
11700;DHT22;5906;51.660;6.674;2022-09-03T00:50:13;16.20;99.90
11700;DHT22;5906;51.660;6.674;2022-09-03T00:52:46;16.20;99.90
11700;DHT22;5906;51.660;6.674;2022-09-03T01:00:37;16.10;99.90
11700;DHT22;5906;51.660;6.674;2022-09-03T01:03:06;16.10;99.90
11700;DHT22;5906;51.660;6.674;2022-09-03T01:05:52;16.10;99.90
11700;DHT22;5906;51.660;6.674;2022-09-03T01:08:39;16.00;99.90
11700;DHT22;5906;51.660;6.674;2022-09-03T01:11:28;15.90;99.90
11700;DHT22;5906;51.660;6.674;2022-09-03T01:17:26;15.70;99.90
11700;DHT22;5906;51.660;6.674;2022-09-03T01:20:16;15.70;99.90
11700;DHT22;5906;51.660;6.674;2022-09-03T01:34:30;15.70;99.90
11700;DHT22;5906;51.660;6.674;2022-09-03T01:45:53;15.60;99.90
11700;DHT22;5906;51.660;6.674;2022-09-03T01:48:31;15.60;99.90
11700;DHT22;5906;51.660;6.674;2022-09-03T01:51:21;15.60;99.90
11700;DHT22;5906;51.660;6.674;2022-09-03T01:54:01;15.60;99.90
11700;DHT22;5906;51.660;6.674;2022-09-03T01:59:17;15.40;99.90
11700;DHT22;5906;51.660;6.674;2022-09-03T02:10:40;15.40;99.90
11700;DHT22;5906;51.660;6.674;2022-09-03T02:13:18;15.40;99.90
11700;DHT22;5906;51.660;6.674;2022-09-03T02:15:48;15.40;99.90
11700;DHT22;5906;51.660;6.674;2022-09-03T02:18:26;15.30;99.90
11700;DHT22;5906;51.660;6.674;2022-09-03T02:20:55;15.30;99.90
11700;DHT22;5906;51.660;6.674;2022-09-03T02:23:22;15.30;99.90
11700;DHT22;5906;51.660;6.674;2022-09-03T02:26:01;15.20;99.90
11700;DHT22;5906;51.660;6.674;2022-09-03T02:28:30;15.20;99.90
11700;DHT22;5906;51.660;6.674;2022-09-03T02:30:57;15.20;99.90
11700;DHT22;5906;51.660;6.674;2022-09-03T02:33:24;15.10;99.90
11700;DHT22;5906;51.660;6.674;2022-09-03T02:35:52;15.10;99.90
11700;DHT22;5906;51.660;6.674;2022-09-03T02:38:23;15.20;99.90
11700;DHT22;5906;51.660;6.674;2022-09-03T02:40:54;15.20;99.90
11700;DHT22;5906;51.660;6.674;2022-09-03T02:43:41;15.20;99.90
11700;DHT22;5906;51.660;6.674;2022-09-03T02:46:11;15.10;99.90
11700;DHT22;5906;51.660;6.674;2022-09-03T02:48:41;15.00;99.90
11700;DHT22;5906;51.660;6.674;2022-09-03T02:51:08;14.90;99.90
11700;DHT22;5906;51.660;6.674;2022-09-03T02:53:41;14.90;99.90
11700;DHT22;5906;51.660;6.674;2022-09-03T02:56:07;14.90;99.90
11700;DHT22;5906;51.660;6.674;2022-09-03T02:58:34;14.80;99.90
11700;DHT22;5906;51.660;6.674;2022-09-03T03:01:02;14.80;99.90
11700;DHT22;5906;51.660;6.674;2022-09-03T03:03:30;14.80;99.90
11700;DHT22;5906;51.660;6.674;2022-09-03T03:06:00;14.80;99.90
11700;DHT22;5906;51.660;6.674;2022-09-03T03:08:28;14.90;99.90
11700;DHT22;5906;51.660;6.674;2022-09-03T03:10:57;14.90;99.90
11700;DHT22;5906;51.660;6.674;2022-09-03T03:13:27;14.80;99.90
11700;DHT22;5906;51.660;6.674;2022-09-03T03:15:58;14.80;99.90
11700;DHT22;5906;51.660;6.674;2022-09-03T03:18:26;14.80;99.90
11700;DHT22;5906;51.660;6.674;2022-09-03T03:20:53;14.70;99.90
11700;DHT22;5906;51.660;6.674;2022-09-03T03:23:20;14.70;99.90
11700;DHT22;5906;51.660;6.674;2022-09-03T03:25:47;14.60;99.90
11700;DHT22;5906;51.660;6.674;2022-09-03T03:28:14;14.60;99.90
11700;DHT22;5906;51.660;6.674;2022-09-03T03:30:41;14.60;99.90
11700;DHT22;5906;51.660;6.674;2022-09-03T03:33:08;14.60;99.90
11700;DHT22;5906;51.660;6.674;2022-09-03T03:35:35;14.70;99.90
11700;DHT22;5906;51.660;6.674;2022-09-03T03:38:02;14.60;99.90
11700;DHT22;5906;51.660;6.674;2022-09-03T03:40:30;14.50;99.90
11700;DHT22;5906;51.660;6.674;2022-09-03T03:42:57;14.50;99.90
11700;DHT22;5906;51.660;6.674;2022-09-03T03:45:24;14.50;99.90
11700;DHT22;5906;51.660;6.674;2022-09-03T03:47:51;14.40;99.90
11700;DHT22;5906;51.660;6.674;2022-09-03T03:50:18;14.50;99.90
11700;DHT22;5906;51.660;6.674;2022-09-03T03:52:45;14.50;99.90
11700;DHT22;5906;51.660;6.674;2022-09-03T03:55:14;14.50;99.90
11700;DHT22;5906;51.660;6.674;2022-09-03T03:57:41;14.40;99.90
11700;DHT22;5906;51.660;6.674;2022-09-03T04:00:08;14.40;99.90
11700;DHT22;5906;51.660;6.674;2022-09-03T04:02:35;14.30;99.90
11700;DHT22;5906;51.660;6.674;2022-09-03T04:05:05;14.30;99.90
11700;DHT22;5906;51.660;6.674;2022-09-03T04:07:33;14.40;99.90
11700;DHT22;5906;51.660;6.674;2022-09-03T04:09:59;14.40;99.90
11700;DHT22;5906;51.660;6.674;2022-09-03T04:12:26;14.40;99.90
11700;DHT22;5906;51.660;6.674;2022-09-03T04:14:53;14.40;99.90
11700;DHT22;5906;51.660;6.674;2022-09-03T04:17:20;14.30;99.90
11700;DHT22;5906;51.660;6.674;2022-09-03T04:19:50;14.30;99.90
11700;DHT22;5906;51.660;6.674;2022-09-03T04:22:17;14.30;99.90
11700;DHT22;5906;51.660;6.674;2022-09-03T04:24:46;14.30;99.90
11700;DHT22;5906;51.660;6.674;2022-09-03T04:27:12;14.20;99.90
11700;DHT22;5906;51.660;6.674;2022-09-03T04:29:39;14.10;99.90
11700;DHT22;5906;51.660;6.674;2022-09-03T04:32:05;14.20;99.90
11700;DHT22;5906;51.660;6.674;2022-09-03T04:34:51;14.20;99.90
11700;DHT22;5906;51.660;6.674;2022-09-03T04:37:17;14.20;99.90
11700;DHT22;5906;51.660;6.674;2022-09-03T04:39:45;14.20;99.90
11700;DHT22;5906;51.660;6.674;2022-09-03T04:42:12;14.30;99.90
11700;DHT22;5906;51.660;6.674;2022-09-03T04:44:39;14.10;99.90
11700;DHT22;5906;51.660;6.674;2022-09-03T04:47:07;14.10;99.90
11700;DHT22;5906;51.660;6.674;2022-09-03T04:49:33;14.10;99.90
11700;DHT22;5906;51.660;6.674;2022-09-03T04:52:01;14.10;99.90
11700;DHT22;5906;51.660;6.674;2022-09-03T04:54:28;14.10;99.90
11700;DHT22;5906;51.660;6.674;2022-09-03T04:56:55;14.10;99.90
11700;DHT22;5906;51.660;6.674;2022-09-03T04:59:22;14.20;99.90
11700;DHT22;5906;51.660;6.674;2022-09-03T05:01:48;14.30;99.90
11700;DHT22;5906;51.660;6.674;2022-09-03T05:04:18;14.10;99.90
11700;DHT22;5906;51.660;6.674;2022-09-03T05:06:45;14.10;99.90
11700;DHT22;5906;51.660;6.674;2022-09-03T05:09:12;14.10;99.90
11700;DHT22;5906;51.660;6.674;2022-09-03T05:11:38;14.10;99.90
11700;DHT22;5906;51.660;6.674;2022-09-03T05:14:05;14.10;99.90
11700;DHT22;5906;51.660;6.674;2022-09-03T05:16:32;14.10;99.90
11700;DHT22;5906;51.660;6.674;2022-09-03T05:18:59;14.20;99.90
11700;DHT22;5906;51.660;6.674;2022-09-03T05:21:27;14.20;99.90
11700;DHT22;5906;51.660;6.674;2022-09-03T05:23:54;14.30;99.90
11700;DHT22;5906;51.660;6.674;2022-09-03T05:26:26;14.30;99.90
11700;DHT22;5906;51.660;6.674;2022-09-03T05:28:55;14.30;99.90
11700;DHT22;5906;51.660;6.674;2022-09-03T05:31:24;14.30;99.90
11700;DHT22;5906;51.660;6.674;2022-09-03T05:33:55;14.30;99.90
11700;DHT22;5906;51.660;6.674;2022-09-03T05:36:26;14.40;99.90
11700;DHT22;5906;51.660;6.674;2022-09-03T05:38:53;14.40;99.90
11700;DHT22;5906;51.660;6.674;2022-09-03T05:41:21;14.40;99.90
11700;DHT22;5906;51.660;6.674;2022-09-03T05:43:50;14.50;99.90
11700;DHT22;5906;51.660;6.674;2022-09-03T05:46:30;14.50;99.90
11700;DHT22;5906;51.660;6.674;2022-09-03T05:49:02;14.50;99.90
11700;DHT22;5906;51.660;6.674;2022-09-03T05:51:30;14.50;99.90
11700;DHT22;5906;51.660;6.674;2022-09-03T05:53:57;14.50;99.90
11700;DHT22;5906;51.660;6.674;2022-09-03T05:56:26;14.70;99.90
11700;DHT22;5906;51.660;6.674;2022-09-03T05:58:56;14.70;99.90
11700;DHT22;5906;51.660;6.674;2022-09-03T06:01:25;14.80;99.90
11700;DHT22;5906;51.660;6.674;2022-09-03T06:06:22;14.90;99.90
11700;DHT22;5906;51.660;6.674;2022-09-03T06:08:57;14.90;99.90
11700;DHT22;5906;51.660;6.674;2022-09-03T06:11:25;15.00;99.90
11700;DHT22;5906;51.660;6.674;2022-09-03T06:13:54;15.10;99.90
11700;DHT22;5906;51.660;6.674;2022-09-03T06:16:22;15.10;99.90
11700;DHT22;5906;51.660;6.674;2022-09-03T06:18:58;15.30;99.90
11700;DHT22;5906;51.660;6.674;2022-09-03T06:21:25;15.30;99.90
11700;DHT22;5906;51.660;6.674;2022-09-03T06:23:53;15.40;99.90
11700;DHT22;5906;51.660;6.674;2022-09-03T06:26:26;15.60;99.90
11700;DHT22;5906;51.660;6.674;2022-09-03T06:28:55;15.60;99.90
11700;DHT22;5906;51.660;6.674;2022-09-03T06:31:23;15.70;99.90
11700;DHT22;5906;51.660;6.674;2022-09-03T06:33:51;15.90;99.90
11700;DHT22;5906;51.660;6.674;2022-09-03T06:36:22;16.00;99.90
11700;DHT22;5906;51.660;6.674;2022-09-03T06:38:51;16.20;99.90
11700;DHT22;5906;51.660;6.674;2022-09-03T06:41:22;16.30;99.90
11700;DHT22;5906;51.660;6.674;2022-09-03T06:43:57;16.50;99.90
11700;DHT22;5906;51.660;6.674;2022-09-03T06:46:30;16.60;99.90
11700;DHT22;5906;51.660;6.674;2022-09-03T06:48:57;16.80;99.90
11700;DHT22;5906;51.660;6.674;2022-09-03T06:51:28;16.90;99.90
11700;DHT22;5906;51.660;6.674;2022-09-03T06:54:04;17.10;99.90
11700;DHT22;5906;51.660;6.674;2022-09-03T06:56:32;17.20;99.90
11700;DHT22;5906;51.660;6.674;2022-09-03T06:59:13;17.50;99.90
11700;DHT22;5906;51.660;6.674;2022-09-03T07:01:41;17.70;99.90
11700;DHT22;5906;51.660;6.674;2022-09-03T07:04:12;17.80;99.90
11700;DHT22;5906;51.660;6.674;2022-09-03T07:06:41;18.00;99.90
11700;DHT22;5906;51.660;6.674;2022-09-03T07:09:10;18.20;99.90
11700;DHT22;5906;51.660;6.674;2022-09-03T07:11:37;18.40;99.90
11700;DHT22;5906;51.660;6.674;2022-09-03T07:14:13;18.50;99.90
11700;DHT22;5906;51.660;6.674;2022-09-03T07:16:40;18.80;99.90
11700;DHT22;5906;51.660;6.674;2022-09-03T07:19:09;18.90;99.90
11700;DHT22;5906;51.660;6.674;2022-09-03T07:21:39;19.00;99.90
11700;DHT22;5906;51.660;6.674;2022-09-03T07:24:15;19.10;99.90
11700;DHT22;5906;51.660;6.674;2022-09-03T07:26:42;19.20;99.90
11700;DHT22;5906;51.660;6.674;2022-09-03T07:29:12;19.40;99.90
11700;DHT22;5906;51.660;6.674;2022-09-03T07:31:41;19.60;99.90
11700;DHT22;5906;51.660;6.674;2022-09-03T07:34:11;19.80;99.90
11700;DHT22;5906;51.660;6.674;2022-09-03T07:36:43;19.90;99.90
11700;DHT22;5906;51.660;6.674;2022-09-03T07:39:14;20.00;99.90
11700;DHT22;5906;51.660;6.674;2022-09-03T07:41:42;20.20;99.90
11700;DHT22;5906;51.660;6.674;2022-09-03T07:44:12;20.30;99.90
11700;DHT22;5906;51.660;6.674;2022-09-03T07:46:41;20.40;99.90
11700;DHT22;5906;51.660;6.674;2022-09-03T07:49:09;20.50;99.90
11700;DHT22;5906;51.660;6.674;2022-09-03T07:51:37;20.70;99.90
11700;DHT22;5906;51.660;6.674;2022-09-03T07:54:06;20.90;99.90
11700;DHT22;5906;51.660;6.674;2022-09-03T07:56:34;21.00;99.90
11700;DHT22;5906;51.660;6.674;2022-09-03T07:59:02;21.10;99.90
11700;DHT22;5906;51.660;6.674;2022-09-03T08:01:30;21.30;99.90
11700;DHT22;5906;51.660;6.674;2022-09-03T08:03:59;21.30;99.90
11700;DHT22;5906;51.660;6.674;2022-09-03T08:06:27;21.40;99.90
11700;DHT22;5906;51.660;6.674;2022-09-03T08:08:56;21.50;99.90
11700;DHT22;5906;51.660;6.674;2022-09-03T08:11:30;21.60;99.90
11700;DHT22;5906;51.660;6.674;2022-09-03T08:14:02;21.70;99.90
11700;DHT22;5906;51.660;6.674;2022-09-03T08:16:37;21.80;99.90
11700;DHT22;5906;51.660;6.674;2022-09-03T08:19:05;21.90;99.90
11700;DHT22;5906;51.660;6.674;2022-09-03T08:21:33;22.00;99.90
11700;DHT22;5906;51.660;6.674;2022-09-03T08:23:59;22.20;99.90
11700;DHT22;5906;51.660;6.674;2022-09-03T08:26:31;22.30;99.90
11700;DHT22;5906;51.660;6.674;2022-09-03T08:28:58;22.40;99.90
11700;DHT22;5906;51.660;6.674;2022-09-03T08:31:26;22.30;99.90
11700;DHT22;5906;51.660;6.674;2022-09-03T08:33:56;22.40;99.90
11700;DHT22;5906;51.660;6.674;2022-09-03T08:36:24;22.60;99.90
11700;DHT22;5906;51.660;6.674;2022-09-03T08:38:52;22.80;99.90
11700;DHT22;5906;51.660;6.674;2022-09-03T08:52:41;23.90;99.90
11700;DHT22;5906;51.660;6.674;2022-09-03T08:55:30;23.80;99.90
11700;DHT22;5906;51.660;6.674;2022-09-03T08:58:12;23.80;99.90
11700;DHT22;5906;51.660;6.674;2022-09-03T09:06:45;24.20;99.90
11700;DHT22;5906;51.660;6.674;2022-09-03T09:09:52;24.30;99.90
11700;DHT22;5906;51.660;6.674;2022-09-03T09:12:36;24.50;99.90
11700;DHT22;5906;51.660;6.674;2022-09-03T09:20:38;25.30;99.90
11700;DHT22;5906;51.660;6.674;2022-09-03T09:23:14;25.50;99.90
11700;DHT22;5906;51.660;6.674;2022-09-03T09:25:48;25.60;99.90
11700;DHT22;5906;51.660;6.674;2022-09-03T09:28:23;25.80;99.90
11700;DHT22;5906;51.660;6.674;2022-09-03T09:30:54;25.90;99.90
11700;DHT22;5906;51.660;6.674;2022-09-03T09:33:22;26.10;99.90
11700;DHT22;5906;51.660;6.674;2022-09-03T09:35:49;26.30;99.90
11700;DHT22;5906;51.660;6.674;2022-09-03T09:38:30;26.30;99.90
11700;DHT22;5906;51.660;6.674;2022-09-03T09:41:17;26.30;99.90
11700;DHT22;5906;51.660;6.674;2022-09-03T09:43:46;26.20;99.90
11700;DHT22;5906;51.660;6.674;2022-09-03T09:46:21;26.30;99.90
11700;DHT22;5906;51.660;6.674;2022-09-03T09:49:21;26.20;99.90
11700;DHT22;5906;51.660;6.674;2022-09-03T09:52:04;26.20;99.90
11700;DHT22;5906;51.660;6.674;2022-09-03T09:54:34;26.50;99.90
11700;DHT22;5906;51.660;6.674;2022-09-03T09:57:04;26.70;99.90
11700;DHT22;5906;51.660;6.674;2022-09-03T09:59:33;26.80;99.90
11700;DHT22;5906;51.660;6.674;2022-09-03T10:02:22;26.70;99.90
11700;DHT22;5906;51.660;6.674;2022-09-03T10:05:10;26.90;99.90
11700;DHT22;5906;51.660;6.674;2022-09-03T10:07:38;27.20;99.90
11700;DHT22;5906;51.660;6.674;2022-09-03T10:10:15;27.30;99.90
11700;DHT22;5906;51.660;6.674;2022-09-03T10:13:01;27.60;99.90
11700;DHT22;5906;51.660;6.674;2022-09-03T10:21:29;28.30;99.90
11700;DHT22;5906;51.660;6.674;2022-09-03T10:26:42;28.30;99.90
11700;DHT22;5906;51.660;6.674;2022-09-03T10:29:19;28.50;99.90
11700;DHT22;5906;51.660;6.674;2022-09-03T10:32:09;28.30;99.90
11700;DHT22;5906;51.660;6.674;2022-09-03T10:35:19;28.20;99.90
11700;DHT22;5906;51.660;6.674;2022-09-03T10:43:53;28.40;99.90
11700;DHT22;5906;51.660;6.674;2022-09-03T10:46:28;28.40;99.90
11700;DHT22;5906;51.660;6.674;2022-09-03T10:57:35;28.70;99.90
11700;DHT22;5906;51.660;6.674;2022-09-03T11:00:11;28.90;99.90
11700;DHT22;5906;51.660;6.674;2022-09-03T11:05:37;28.80;99.90
11700;DHT22;5906;51.660;6.674;2022-09-03T11:08:20;29.00;99.90
11700;DHT22;5906;51.660;6.674;2022-09-03T11:10:55;28.90;99.90
11700;DHT22;5906;51.660;6.674;2022-09-03T11:13:28;28.80;99.90
11700;DHT22;5906;51.660;6.674;2022-09-03T11:16:17;28.90;99.90
11700;DHT22;5906;51.660;6.674;2022-09-03T11:18:50;28.90;99.90
11700;DHT22;5906;51.660;6.674;2022-09-03T11:21:22;28.80;99.90
11700;DHT22;5906;51.660;6.674;2022-09-03T11:24:06;28.70;99.90
11700;DHT22;5906;51.660;6.674;2022-09-03T11:26:35;28.80;99.90
11700;DHT22;5906;51.660;6.674;2022-09-03T11:32:03;28.80;99.90
11700;DHT22;5906;51.660;6.674;2022-09-03T11:34:48;29.20;99.90
11700;DHT22;5906;51.660;6.674;2022-09-03T11:40:14;29.30;99.90
11700;DHT22;5906;51.660;6.674;2022-09-03T11:42:46;29.20;99.90
11700;DHT22;5906;51.660;6.674;2022-09-03T11:47:46;29.60;99.90
11700;DHT22;5906;51.660;6.674;2022-09-03T11:50:28;30.00;99.90
11700;DHT22;5906;51.660;6.674;2022-09-03T11:58:31;30.00;99.90
11700;DHT22;5906;51.660;6.674;2022-09-03T12:01:10;29.70;99.90
11700;DHT22;5906;51.660;6.674;2022-09-03T12:03:47;29.70;99.90
11700;DHT22;5906;51.660;6.674;2022-09-03T12:06:37;29.80;99.90
11700;DHT22;5906;51.660;6.674;2022-09-03T12:17:33;30.00;99.90
11700;DHT22;5906;51.660;6.674;2022-09-03T12:20:11;30.00;99.90
11700;DHT22;5906;51.660;6.674;2022-09-03T12:22:39;29.60;99.90
11700;DHT22;5906;51.660;6.674;2022-09-03T12:25:12;29.60;99.90
11700;DHT22;5906;51.660;6.674;2022-09-03T12:27:43;29.60;99.90
11700;DHT22;5906;51.660;6.674;2022-09-03T12:30:16;29.60;99.90
11700;DHT22;5906;51.660;6.674;2022-09-03T12:32:44;29.50;99.90
11700;DHT22;5906;51.660;6.674;2022-09-03T12:35:16;29.40;99.90
11700;DHT22;5906;51.660;6.674;2022-09-03T12:38:03;29.60;99.90
11700;DHT22;5906;51.660;6.674;2022-09-03T12:40:33;29.50;99.90
11700;DHT22;5906;51.660;6.674;2022-09-03T12:43:26;29.50;99.90
11700;DHT22;5906;51.660;6.674;2022-09-03T12:46:14;29.20;99.90
11700;DHT22;5906;51.660;6.674;2022-09-03T12:49:04;29.10;99.90
11700;DHT22;5906;51.660;6.674;2022-09-03T12:52:01;29.40;99.90
11700;DHT22;5906;51.660;6.674;2022-09-03T12:54:33;29.40;99.90
11700;DHT22;5906;51.660;6.674;2022-09-03T12:57:02;29.50;99.90
11700;DHT22;5906;51.660;6.674;2022-09-03T12:59:33;29.70;99.90
11700;DHT22;5906;51.660;6.674;2022-09-03T13:02:14;30.10;99.90
11700;DHT22;5906;51.660;6.674;2022-09-03T13:04:44;30.00;99.90
11700;DHT22;5906;51.660;6.674;2022-09-03T13:07:35;30.20;99.90
11700;DHT22;5906;51.660;6.674;2022-09-03T13:10:30;30.30;99.90
11700;DHT22;5906;51.660;6.674;2022-09-03T13:13:06;30.30;99.90
11700;DHT22;5906;51.660;6.674;2022-09-03T13:16:02;30.30;99.90
11700;DHT22;5906;51.660;6.674;2022-09-03T13:18:46;30.20;99.90
11700;DHT22;5906;51.660;6.674;2022-09-03T13:21:42;29.90;99.90
11700;DHT22;5906;51.660;6.674;2022-09-03T13:24:37;29.90;99.90
11700;DHT22;5906;51.660;6.674;2022-09-03T13:30:07;29.80;99.90
11700;DHT22;5906;51.660;6.674;2022-09-03T13:35:50;30.10;99.90
11700;DHT22;5906;51.660;6.674;2022-09-03T13:38:45;30.40;99.90
11700;DHT22;5906;51.660;6.674;2022-09-03T13:41:40;30.10;99.90
11700;DHT22;5906;51.660;6.674;2022-09-03T13:46:59;30.20;99.90
11700;DHT22;5906;51.660;6.674;2022-09-03T13:49:46;30.10;99.90
11700;DHT22;5906;51.660;6.674;2022-09-03T13:52:45;30.30;99.90
11700;DHT22;5906;51.660;6.674;2022-09-03T13:58:05;30.10;99.90
11700;DHT22;5906;51.660;6.674;2022-09-03T14:00:51;29.90;99.90
11700;DHT22;5906;51.660;6.674;2022-09-03T14:03:35;29.80;99.90
11700;DHT22;5906;51.660;6.674;2022-09-03T14:11:53;30.40;99.90
11700;DHT22;5906;51.660;6.674;2022-09-03T14:19:57;30.60;99.90
11700;DHT22;5906;51.660;6.674;2022-09-03T14:25:15;30.00;99.90
11700;DHT22;5906;51.660;6.674;2022-09-03T14:27:42;30.00;99.90
11700;DHT22;5906;51.660;6.674;2022-09-03T14:40:45;30.10;99.90
11700;DHT22;5906;51.660;6.674;2022-09-03T14:58:04;29.90;99.90
11700;DHT22;5906;51.660;6.674;2022-09-03T15:01:09;30.00;99.90
11700;DHT22;5906;51.660;6.674;2022-09-03T15:03:49;30.10;99.90
11700;DHT22;5906;51.660;6.674;2022-09-03T15:09:36;29.60;99.90
11700;DHT22;5906;51.660;6.674;2022-09-03T15:14:54;29.30;99.90
11700;DHT22;5906;51.660;6.674;2022-09-03T15:17:39;29.00;99.90
11700;DHT22;5906;51.660;6.674;2022-09-03T15:20:51;28.90;99.90
11700;DHT22;5906;51.660;6.674;2022-09-03T15:23:03;29.00;99.90
11700;DHT22;5906;51.660;6.674;2022-09-03T15:25:41;29.10;99.90
11700;DHT22;5906;51.660;6.674;2022-09-03T15:32:17;29.30;99.90
11700;DHT22;5906;51.660;6.674;2022-09-03T15:36:56;28.80;99.90
11700;DHT22;5906;51.660;6.674;2022-09-03T15:39:33;28.70;99.90
11700;DHT22;5906;51.660;6.674;2022-09-03T15:42:25;28.60;99.90
11700;DHT22;5906;51.660;6.674;2022-09-03T15:44:55;28.20;99.90
11700;DHT22;5906;51.660;6.674;2022-09-03T15:50:32;27.80;99.90
11700;DHT22;5906;51.660;6.674;2022-09-03T15:53:20;27.90;99.90
11700;DHT22;5906;51.660;6.674;2022-09-03T15:59:00;27.90;99.90
11700;DHT22;5906;51.660;6.674;2022-09-03T16:02:20;28.00;99.90
11700;DHT22;5906;51.660;6.674;2022-09-03T16:05:02;27.90;99.90
11700;DHT22;5906;51.660;6.674;2022-09-03T16:15:37;27.70;99.90
11700;DHT22;5906;51.660;6.674;2022-09-03T16:21:03;27.50;99.90
11700;DHT22;5906;51.660;6.674;2022-09-03T16:24:08;27.40;99.90
11700;DHT22;5906;51.660;6.674;2022-09-03T16:26:36;27.40;99.90
11700;DHT22;5906;51.660;6.674;2022-09-03T16:29:11;27.30;99.90
11700;DHT22;5906;51.660;6.674;2022-09-03T16:37:29;26.80;99.90
11700;DHT22;5906;51.660;6.674;2022-09-03T16:40:21;26.90;99.90
11700;DHT22;5906;51.660;6.674;2022-09-03T16:42:59;26.90;99.90
11700;DHT22;5906;51.660;6.674;2022-09-03T16:45:45;27.10;99.90
11700;DHT22;5906;51.660;6.674;2022-09-03T16:51:21;27.00;99.90
11700;DHT22;5906;51.660;6.674;2022-09-03T16:57:24;26.90;99.90
11700;DHT22;5906;51.660;6.674;2022-09-03T17:00:15;26.90;99.90
11700;DHT22;5906;51.660;6.674;2022-09-03T17:03:12;26.80;99.90
11700;DHT22;5906;51.660;6.674;2022-09-03T17:11:41;26.70;99.90
11700;DHT22;5906;51.660;6.674;2022-09-03T17:17:03;26.50;99.90
11700;DHT22;5906;51.660;6.674;2022-09-03T17:19:46;26.30;99.90
11700;DHT22;5906;51.660;6.674;2022-09-03T17:25:36;26.20;99.90
11700;DHT22;5906;51.660;6.674;2022-09-03T17:31:18;26.10;99.90
11700;DHT22;5906;51.660;6.674;2022-09-03T17:34:10;26.20;99.90
11700;DHT22;5906;51.660;6.674;2022-09-03T17:37:37;26.20;99.90
11700;DHT22;5906;51.660;6.674;2022-09-03T17:42:52;26.10;99.90
11700;DHT22;5906;51.660;6.674;2022-09-03T17:51:48;25.80;99.90
11700;DHT22;5906;51.660;6.674;2022-09-03T17:54:40;25.70;99.90
11700;DHT22;5906;51.660;6.674;2022-09-03T17:57:21;25.60;99.90
11700;DHT22;5906;51.660;6.674;2022-09-03T18:00:06;25.50;99.90
11700;DHT22;5906;51.660;6.674;2022-09-03T18:02:38;25.30;99.90
11700;DHT22;5906;51.660;6.674;2022-09-03T18:05:31;25.20;99.90
11700;DHT22;5906;51.660;6.674;2022-09-03T18:08:17;25.00;99.90
11700;DHT22;5906;51.660;6.674;2022-09-03T18:11:39;24.90;99.90
11700;DHT22;5906;51.660;6.674;2022-09-03T18:16:33;24.60;99.90
11700;DHT22;5906;51.660;6.674;2022-09-03T18:19:07;24.40;99.90
11700;DHT22;5906;51.660;6.674;2022-09-03T18:21:46;24.20;99.90
11700;DHT22;5906;51.660;6.674;2022-09-03T18:24:40;24.10;99.90
11700;DHT22;5906;51.660;6.674;2022-09-03T18:27:41;23.90;99.90
11700;DHT22;5906;51.660;6.674;2022-09-03T18:30:27;23.80;99.90
11700;DHT22;5906;51.660;6.674;2022-09-03T18:33:13;23.60;99.90
11700;DHT22;5906;51.660;6.674;2022-09-03T18:35:59;23.50;99.90
11700;DHT22;5906;51.660;6.674;2022-09-03T18:38:45;23.20;99.90
11700;DHT22;5906;51.660;6.674;2022-09-03T18:41:46;23.10;99.90
11700;DHT22;5906;51.660;6.674;2022-09-03T18:45:00;23.00;99.90
11700;DHT22;5906;51.660;6.674;2022-09-03T18:48:10;22.90;99.90
11700;DHT22;5906;51.660;6.674;2022-09-03T19:00:29;22.60;99.90
11700;DHT22;5906;51.660;6.674;2022-09-03T19:03:39;22.70;99.90
11700;DHT22;5906;51.660;6.674;2022-09-03T19:06:40;22.70;99.90
11700;DHT22;5906;51.660;6.674;2022-09-03T19:16:02;22.40;99.90
11700;DHT22;5906;51.660;6.674;2022-09-03T19:21:57;22.30;99.90
11700;DHT22;5906;51.660;6.674;2022-09-03T19:24:43;22.20;99.90
11700;DHT22;5906;51.660;6.674;2022-09-03T19:31:00;21.90;99.90
11700;DHT22;5906;51.660;6.674;2022-09-03T19:46:49;21.60;99.90
11700;DHT22;5906;51.660;6.674;2022-09-03T19:50:05;21.60;99.90
11700;DHT22;5906;51.660;6.674;2022-09-03T19:53:00;21.60;99.90
11700;DHT22;5906;51.660;6.674;2022-09-03T19:55:59;21.60;99.90
11700;DHT22;5906;51.660;6.674;2022-09-03T19:58:53;21.60;99.90
11700;DHT22;5906;51.660;6.674;2022-09-03T20:01:39;21.50;99.90
11700;DHT22;5906;51.660;6.674;2022-09-03T20:04:36;21.60;99.90
11700;DHT22;5906;51.660;6.674;2022-09-03T20:07:23;21.60;99.90
11700;DHT22;5906;51.660;6.674;2022-09-03T20:10:12;21.60;99.90
11700;DHT22;5906;51.660;6.674;2022-09-03T20:15:43;21.60;99.90
11700;DHT22;5906;51.660;6.674;2022-09-03T20:18:40;21.50;99.90
11700;DHT22;5906;51.660;6.674;2022-09-03T20:27:16;21.20;99.90
11700;DHT22;5906;51.660;6.674;2022-09-03T20:32:40;21.10;99.90
11700;DHT22;5906;51.660;6.674;2022-09-03T20:35:35;21.10;99.90
11700;DHT22;5906;51.660;6.674;2022-09-03T20:38:15;21.00;99.90
11700;DHT22;5906;51.660;6.674;2022-09-03T20:51:58;20.80;99.90
11700;DHT22;5906;51.660;6.674;2022-09-03T20:57:32;20.70;99.90
11700;DHT22;5906;51.660;6.674;2022-09-03T21:11:20;20.40;99.90
11700;DHT22;5906;51.660;6.674;2022-09-03T21:19:08;20.30;99.90
11700;DHT22;5906;51.660;6.674;2022-09-03T21:24:20;20.20;99.90
11700;DHT22;5906;51.660;6.674;2022-09-03T21:27:00;20.20;99.90
11700;DHT22;5906;51.660;6.674;2022-09-03T21:29:33;20.10;99.90
11700;DHT22;5906;51.660;6.674;2022-09-03T21:32:46;20.10;99.90
11700;DHT22;5906;51.660;6.674;2022-09-03T21:35:37;20.00;99.90
11700;DHT22;5906;51.660;6.674;2022-09-03T21:38:07;20.00;99.90
11700;DHT22;5906;51.660;6.674;2022-09-03T21:40:38;19.90;99.90
11700;DHT22;5906;51.660;6.674;2022-09-03T21:45:55;19.90;99.90
11700;DHT22;5906;51.660;6.674;2022-09-03T21:48:30;19.80;99.90
11700;DHT22;5906;51.660;6.674;2022-09-03T21:51:08;19.80;99.90
11700;DHT22;5906;51.660;6.674;2022-09-03T21:53:47;19.80;99.90
11700;DHT22;5906;51.660;6.674;2022-09-03T21:56:45;19.70;99.90
11700;DHT22;5906;51.660;6.674;2022-09-03T22:04:28;19.60;99.90
11700;DHT22;5906;51.660;6.674;2022-09-03T22:07:07;19.50;99.90
11700;DHT22;5906;51.660;6.674;2022-09-03T22:12:34;19.30;99.90
11700;DHT22;5906;51.660;6.674;2022-09-03T22:15:05;19.20;99.90
11700;DHT22;5906;51.660;6.674;2022-09-03T22:20:13;19.10;99.90
11700;DHT22;5906;51.660;6.674;2022-09-03T22:23:07;19.00;99.90
11700;DHT22;5906;51.660;6.674;2022-09-03T22:25:43;18.90;99.90